createdAt,value
2023-05-19T00:00:21.815Z,9.89
2023-05-19T00:01:24.867Z,9.91
2023-05-19T00:02:27.378Z,9.87
2023-05-19T00:03:30.428Z,9.87
2023-05-19T00:04:33.534Z,9.84
2023-05-19T00:05:46.137Z,9.83
2023-05-19T00:06:50.874Z,9.81
2023-05-19T00:07:53.820Z,9.81
2023-05-19T00:08:57.616Z,9.82
2023-05-19T00:09:59.374Z,9.80
2023-05-19T00:11:01.821Z,9.78
2023-05-19T00:12:05.919Z,9.76
2023-05-19T00:13:07.486Z,9.75
2023-05-19T00:14:11.523Z,9.71
2023-05-19T00:15:13.417Z,9.69
2023-05-19T00:16:15.289Z,9.65
2023-05-19T00:17:17.045Z,9.63
2023-05-19T00:18:56.168Z,9.62
2023-05-19T00:20:13.048Z,9.51
2023-05-19T00:21:15.160Z,9.48
2023-05-19T00:22:19.653Z,9.45
2023-05-19T00:23:23.400Z,9.44
2023-05-19T00:24:28.405Z,9.43
2023-05-19T00:25:29.883Z,9.44
2023-05-19T00:26:33.529Z,9.44
2023-05-19T00:27:39.383Z,9.44
2023-05-19T00:28:42.522Z,9.44
2023-05-19T00:29:44.045Z,9.46
2023-05-19T00:30:45.804Z,9.44
2023-05-19T00:31:47.350Z,9.45
2023-05-19T00:32:51.526Z,9.45
2023-05-19T00:33:55.627Z,9.44
2023-05-19T00:34:57.247Z,9.41
2023-05-19T00:35:58.838Z,9.36
2023-05-19T00:37:00.410Z,9.34
2023-05-19T00:38:01.913Z,9.31
2023-05-19T00:39:03.562Z,9.30
2023-05-19T00:40:06.641Z,9.30
2023-05-19T00:41:08.296Z,9.30
2023-05-19T00:42:12.431Z,9.31
2023-05-19T00:43:16.562Z,9.26
2023-05-19T00:44:18.132Z,9.24
2023-05-19T00:45:19.734Z,9.22
2023-05-19T00:46:23.089Z,9.20
2023-05-19T00:47:24.747Z,9.19
2023-05-19T00:48:26.435Z,9.19
2023-05-19T00:49:30.291Z,9.20
2023-05-19T00:50:32.094Z,9.21
2023-05-19T00:51:33.799Z,9.20
2023-05-19T00:52:35.439Z,9.18
2023-05-19T00:53:39.304Z,9.16
2023-05-19T00:54:40.874Z,9.17
2023-05-19T00:55:42.750Z,9.14
2023-05-19T00:56:45.594Z,9.16
2023-05-19T00:57:49.170Z,9.15
2023-05-19T00:58:51.300Z,9.15
2023-05-19T00:59:52.971Z,9.12
2023-05-19T01:01:02.982Z,9.07
2023-05-19T01:02:04.702Z,9.08
2023-05-19T01:03:13.479Z,9.04
2023-05-19T01:04:25.523Z,9.03
2023-05-19T01:05:27.108Z,9.00
2023-05-19T01:06:29.614Z,8.96
2023-05-19T01:07:31.184Z,8.94
2023-05-19T01:08:33.558Z,8.92
2023-05-19T01:09:37.443Z,8.87
2023-05-19T01:10:45.790Z,8.86
2023-05-19T01:11:47.484Z,8.85
2023-05-19T01:12:49.039Z,8.78
2023-05-19T01:13:51.206Z,8.79
2023-05-19T01:14:52.854Z,8.77
2023-05-19T01:16:01.145Z,8.73
2023-05-19T01:17:25.566Z,8.70
2023-05-19T01:18:32.358Z,8.70
2023-05-19T01:19:47.304Z,8.65
2023-05-19T01:20:56.820Z,8.60
2023-05-19T01:22:13.485Z,8.55
2023-05-19T01:23:17.742Z,8.49
2023-05-19T01:24:28.133Z,8.44
2023-05-19T01:26:01.414Z,8.39
2023-05-19T01:27:02.899Z,8.38
2023-05-19T01:28:25.964Z,8.39
2023-05-19T01:29:39.584Z,8.36
2023-05-19T01:30:42.175Z,8.34
2023-05-19T01:31:47.905Z,8.34
2023-05-19T01:32:52.528Z,8.33
2023-05-19T01:33:59.179Z,8.30
2023-05-19T01:35:01.246Z,8.31
2023-05-19T01:36:03.616Z,8.29
2023-05-19T01:37:07.582Z,8.26
2023-05-19T01:38:12.304Z,8.24
2023-05-19T01:39:15.227Z,8.23
2023-05-19T01:40:17.556Z,8.22
2023-05-19T01:41:22.333Z,8.20
2023-05-19T01:42:27.272Z,8.18
2023-05-19T01:43:29.210Z,8.17
2023-05-19T01:44:31.604Z,8.12
2023-05-19T01:45:33.628Z,8.06
2023-05-19T01:46:35.825Z,8.05
2023-05-19T01:47:41.223Z,8.03
2023-05-19T01:48:45.385Z,7.96
2023-05-19T01:49:48.298Z,7.95
2023-05-19T01:50:51.913Z,7.95
2023-05-19T01:51:53.477Z,7.92
2023-05-19T01:52:57.218Z,7.94
2023-05-19T01:53:58.902Z,7.92
2023-05-19T01:55:00.885Z,7.90
2023-05-19T01:56:04.838Z,7.87
2023-05-19T01:57:06.482Z,7.87
2023-05-19T01:58:26.613Z,7.86
2023-05-19T01:59:37.270Z,7.86
2023-05-19T02:00:56.882Z,7.87
2023-05-19T02:02:01.186Z,7.87
2023-05-19T02:03:14.598Z,7.83
2023-05-19T02:04:31.498Z,7.80
2023-05-19T02:05:40.664Z,7.80
2023-05-19T02:06:46.071Z,7.77
2023-05-19T02:07:54.345Z,7.76
2023-05-19T02:09:03.095Z,7.78
2023-05-19T02:10:10.682Z,7.73
2023-05-19T02:11:15.316Z,7.67
2023-05-19T02:12:24.293Z,7.63
2023-05-19T02:13:29.780Z,7.62
2023-05-19T02:14:39.088Z,7.62
2023-05-19T02:15:45.343Z,7.58
2023-05-19T02:16:48.008Z,7.60
2023-05-19T02:17:51.804Z,7.60
2023-05-19T02:18:54.172Z,7.59
2023-05-19T02:19:55.929Z,7.60
2023-05-19T02:20:57.505Z,7.58
2023-05-19T02:22:01.739Z,7.55
2023-05-19T02:23:03.273Z,7.56
2023-05-19T02:24:07.493Z,7.57
2023-05-19T02:25:09.710Z,7.59
2023-05-19T02:26:11.663Z,7.60
2023-05-19T02:27:13.281Z,7.61
2023-05-19T02:28:14.979Z,7.60
2023-05-19T02:29:16.634Z,7.60
2023-05-19T02:30:18.237Z,7.58
2023-05-19T02:31:19.877Z,7.59
2023-05-19T02:32:21.843Z,7.58
2023-05-19T02:33:26.045Z,7.59
2023-05-19T02:34:27.831Z,7.59
2023-05-19T02:35:31.935Z,7.60
2023-05-19T02:36:37.396Z,7.60
2023-05-19T02:37:39.716Z,7.59
2023-05-19T02:38:41.327Z,7.61
2023-05-19T02:39:45.088Z,7.60
2023-05-19T02:40:47.225Z,7.60
2023-05-19T02:41:51.215Z,7.60
2023-05-19T02:42:52.732Z,7.61
2023-05-19T02:43:54.356Z,7.59
2023-05-19T02:44:55.945Z,7.58
2023-05-19T02:45:57.492Z,7.55
2023-05-19T02:47:00.993Z,7.56
2023-05-19T02:48:04.716Z,7.55
2023-05-19T02:49:06.437Z,7.52
2023-05-19T02:50:08.534Z,7.49
2023-05-19T02:51:12.861Z,7.47
2023-05-19T02:52:14.394Z,7.45
2023-05-19T02:53:16.165Z,7.46
2023-05-19T02:54:17.730Z,7.47
2023-05-19T02:55:19.443Z,7.49
2023-05-19T02:56:21.755Z,7.48
2023-05-19T02:57:26.769Z,7.46
2023-05-19T02:58:30.766Z,7.45
2023-05-19T02:59:34.458Z,7.41
2023-05-19T03:00:36.056Z,7.39
2023-05-19T03:01:40.542Z,7.38
2023-05-19T03:02:44.017Z,7.37
2023-05-19T03:03:45.790Z,7.40
2023-05-19T03:04:47.318Z,7.41
2023-05-19T03:05:51.941Z,7.43
2023-05-19T03:06:55.269Z,7.43
2023-05-19T03:07:56.918Z,7.44
2023-05-19T03:08:58.764Z,7.42
2023-05-19T03:10:06.607Z,7.42
2023-05-19T03:11:08.108Z,7.43
2023-05-19T03:12:09.805Z,7.43
2023-05-19T03:13:11.429Z,7.40
2023-05-19T03:14:14.020Z,7.40
2023-05-19T03:15:16.427Z,7.34
2023-05-19T03:16:17.958Z,7.36
2023-05-19T03:17:19.714Z,7.38
2023-05-19T03:18:21.394Z,7.37
2023-05-19T03:19:23.116Z,7.38
2023-05-19T03:20:24.648Z,7.42
2023-05-19T03:21:28.728Z,7.41
2023-05-19T03:22:30.519Z,7.43
2023-05-19T03:23:32.083Z,7.44
2023-05-19T03:24:33.672Z,7.45
2023-05-19T03:25:35.203Z,7.47
2023-05-19T03:26:36.729Z,7.47
2023-05-19T03:27:38.427Z,7.44
2023-05-19T03:28:40.942Z,7.43
2023-05-19T03:29:42.419Z,7.45
2023-05-19T03:30:46.585Z,7.43
2023-05-19T03:31:52.721Z,7.39
2023-05-19T03:32:54.424Z,7.41
2023-05-19T03:33:57.886Z,7.41
2023-05-19T03:34:59.634Z,7.42
2023-05-19T03:36:01.443Z,7.44
2023-05-19T03:37:06.948Z,7.43
2023-05-19T03:38:11.401Z,7.44
2023-05-19T03:39:16.791Z,7.45
2023-05-19T03:40:21.944Z,7.46
2023-05-19T03:41:24.574Z,7.45
2023-05-19T03:42:26.330Z,7.47
2023-05-19T03:43:28.228Z,7.43
2023-05-19T03:44:37.021Z,7.33
2023-05-19T03:45:41.869Z,7.33
2023-05-19T03:47:03.469Z,7.33
2023-05-19T03:48:35.135Z,7.30
2023-05-19T03:49:58.005Z,7.30
2023-05-19T03:51:23.588Z,7.33
2023-05-19T03:52:29.028Z,7.30
2023-05-19T03:53:41.262Z,7.28
2023-05-19T03:54:43.200Z,7.27
2023-05-19T03:55:44.862Z,7.28
2023-05-19T03:56:47.942Z,7.30
2023-05-19T03:57:49.463Z,7.32
2023-05-19T03:58:51.078Z,7.23
2023-05-19T03:59:53.164Z,7.26
2023-05-19T04:00:55.364Z,7.25
2023-05-19T04:01:57.843Z,7.25
2023-05-19T04:03:01.101Z,7.26
2023-05-19T04:04:02.888Z,7.19
2023-05-19T04:05:07.541Z,7.18
2023-05-19T04:06:14.581Z,7.17
2023-05-19T04:07:16.096Z,7.17
2023-05-19T04:08:17.616Z,7.17
2023-05-19T04:09:19.779Z,7.16
2023-05-19T04:10:21.643Z,7.14
2023-05-19T04:11:23.251Z,7.14
2023-05-19T04:12:26.433Z,7.13
2023-05-19T04:13:27.975Z,7.11
2023-05-19T04:14:29.626Z,7.13
2023-05-19T04:15:31.359Z,7.14
2023-05-19T04:16:33.081Z,7.15
2023-05-19T04:17:35.001Z,7.16
2023-05-19T04:18:36.772Z,7.17
2023-05-19T04:19:39.337Z,7.19
2023-05-19T04:20:40.846Z,7.21
2023-05-19T04:21:42.373Z,7.21
2023-05-19T04:22:46.152Z,7.20
2023-05-19T04:23:47.914Z,7.21
2023-05-19T04:24:53.073Z,7.22
2023-05-19T04:25:57.037Z,7.23
2023-05-19T04:27:02.667Z,7.26
2023-05-19T04:28:04.321Z,7.26
2023-05-19T04:29:05.856Z,7.26
2023-05-19T04:30:15.746Z,7.28
2023-05-19T04:31:55.999Z,7.30
2023-05-19T04:33:05.161Z,7.29
2023-05-19T04:34:10.011Z,7.28
2023-05-19T04:35:15.458Z,7.30
2023-05-19T04:36:21.605Z,7.32
2023-05-19T04:37:25.887Z,7.34
2023-05-19T04:38:29.971Z,7.35
2023-05-19T04:39:31.660Z,7.34
2023-05-19T04:40:34.247Z,7.37
2023-05-19T04:41:36.048Z,7.40
2023-05-19T04:42:41.546Z,7.39
2023-05-19T04:43:44.609Z,7.41
2023-05-19T04:44:49.267Z,7.43
2023-05-19T04:45:51.523Z,7.43
2023-05-19T04:46:57.841Z,7.47
2023-05-19T04:47:59.725Z,7.49
2023-05-19T04:49:02.018Z,7.48
2023-05-19T04:50:04.241Z,7.51
2023-05-19T04:51:06.071Z,7.54
2023-05-19T04:52:10.625Z,7.59
2023-05-19T04:53:14.774Z,7.66
2023-05-19T04:54:19.108Z,7.73
2023-05-19T04:55:20.956Z,7.77
2023-05-19T04:56:23.998Z,7.83
2023-05-19T04:57:25.642Z,7.85
2023-05-19T04:58:27.572Z,7.90
2023-05-19T04:59:29.525Z,7.97
2023-05-19T05:00:31.781Z,8.03
2023-05-19T05:01:40.413Z,8.10
2023-05-19T05:02:45.787Z,8.17
2023-05-19T05:03:48.306Z,8.22
2023-05-19T05:04:50.740Z,8.31
2023-05-19T05:05:52.722Z,8.35
2023-05-19T05:06:54.266Z,8.41
2023-05-19T05:07:56.289Z,8.46
2023-05-19T05:09:04.098Z,8.52
2023-05-19T05:10:06.763Z,8.57
2023-05-19T05:11:08.573Z,8.59
2023-05-19T05:12:10.705Z,8.64
2023-05-19T05:13:14.224Z,8.74
2023-05-19T05:14:16.930Z,8.77
2023-05-19T05:15:18.822Z,8.83
2023-05-19T05:16:23.713Z,8.87
2023-05-19T05:17:25.753Z,8.96
2023-05-19T05:18:27.541Z,9.02
2023-05-19T05:19:29.287Z,9.07
2023-05-19T05:20:33.648Z,9.12
2023-05-19T05:21:35.730Z,9.14
2023-05-19T05:22:38.660Z,9.13
2023-05-19T05:23:41.471Z,9.14
2023-05-19T05:24:43.084Z,9.17
2023-05-19T05:25:44.941Z,9.21
2023-05-19T05:26:46.714Z,9.21
2023-05-19T05:27:51.277Z,9.25
2023-05-19T05:28:53.141Z,9.28
2023-05-19T05:29:55.312Z,9.33
2023-05-19T05:30:58.096Z,9.39
2023-05-19T05:31:59.788Z,9.44
2023-05-19T05:33:02.018Z,9.51
2023-05-19T05:34:09.421Z,9.48
2023-05-19T05:35:15.163Z,9.51
2023-05-19T05:36:17.374Z,9.56
2023-05-19T05:37:19.030Z,9.60
2023-05-19T05:38:25.454Z,9.60
2023-05-19T05:39:29.220Z,9.64
2023-05-19T05:40:30.836Z,9.68
2023-05-19T05:41:37.427Z,9.70
2023-05-19T05:42:44.756Z,9.76
2023-05-19T05:43:46.334Z,9.78
2023-05-19T05:44:50.261Z,9.79
2023-05-19T05:45:52.732Z,9.86
2023-05-19T05:46:54.972Z,9.86
2023-05-19T05:47:56.822Z,9.91
2023-05-19T05:48:58.644Z,9.91
2023-05-19T05:50:00.280Z,9.92
2023-05-19T05:51:01.984Z,9.92
2023-05-19T05:52:07.786Z,9.96
2023-05-19T05:53:18.776Z,10.06
2023-05-19T05:54:24.812Z,10.06
2023-05-19T05:55:27.581Z,10.04
2023-05-19T05:56:29.669Z,10.12
2023-05-19T05:57:35.340Z,10.16
2023-05-19T05:58:37.868Z,10.21
2023-05-19T05:59:40.689Z,10.18
2023-05-19T06:00:48.503Z,10.21
2023-05-19T06:01:50.558Z,10.30
2023-05-19T06:02:53.906Z,10.32
2023-05-19T06:03:55.571Z,10.28
2023-05-19T06:04:58.960Z,10.30
2023-05-19T06:06:02.744Z,10.33
2023-05-19T06:07:04.412Z,10.36
2023-05-19T06:08:09.740Z,10.33
2023-05-19T06:09:14.112Z,10.37
2023-05-19T06:10:15.636Z,10.43
2023-05-19T06:11:17.339Z,10.38
2023-05-19T06:12:18.965Z,10.45
2023-05-19T06:13:24.204Z,10.43
2023-05-19T06:14:26.166Z,10.44
2023-05-19T06:15:46.289Z,10.46
2023-05-19T06:16:55.153Z,10.46
2023-05-19T06:17:56.796Z,10.44
2023-05-19T06:19:00.822Z,10.46
2023-05-19T06:20:02.992Z,10.51
2023-05-19T06:21:04.591Z,10.49
2023-05-19T06:22:08.643Z,10.52
2023-05-19T06:23:10.238Z,10.58
2023-05-19T06:24:14.335Z,10.58
2023-05-19T06:25:16.855Z,10.61
2023-05-19T06:26:20.960Z,10.58
2023-05-19T06:27:22.578Z,10.59
2023-05-19T06:28:24.801Z,10.65
2023-05-19T06:29:26.960Z,10.72
2023-05-19T06:30:30.550Z,10.71
2023-05-19T06:31:40.858Z,10.67
2023-05-19T06:32:46.172Z,10.73
2023-05-19T06:33:47.919Z,10.71
2023-05-19T06:34:54.284Z,10.76
2023-05-19T06:35:55.912Z,10.79
2023-05-19T06:36:57.637Z,10.78
2023-05-19T06:37:59.712Z,10.79
2023-05-19T06:39:02.704Z,10.80
2023-05-19T06:40:09.257Z,10.82
2023-05-19T06:41:15.074Z,10.82
2023-05-19T06:42:46.528Z,10.91
2023-05-19T06:43:51.097Z,10.95
2023-05-19T06:44:55.858Z,11.00
2023-05-19T06:46:02.042Z,11.00
2023-05-19T06:47:06.626Z,11.01
2023-05-19T06:48:08.563Z,11.03
2023-05-19T06:49:11.167Z,11.03
2023-05-19T06:50:21.280Z,11.03
2023-05-19T06:51:24.342Z,11.06
2023-05-19T06:52:30.297Z,11.02
2023-05-19T06:53:33.999Z,11.04
2023-05-19T06:54:37.678Z,11.01
2023-05-19T06:55:54.371Z,11.01
2023-05-19T06:57:00.528Z,11.10
2023-05-19T06:58:02.772Z,11.14
2023-05-19T06:59:05.081Z,11.14
2023-05-19T07:00:17.570Z,11.23
2023-05-19T07:01:22.815Z,11.23
2023-05-19T07:02:33.672Z,11.23
2023-05-19T07:03:35.604Z,11.24
2023-05-19T07:04:37.468Z,11.16
2023-05-19T07:05:38.989Z,11.09
2023-05-19T07:06:40.706Z,11.26
2023-05-19T07:07:43.807Z,11.29
2023-05-19T07:08:48.506Z,11.31
2023-05-19T07:09:51.930Z,11.39
2023-05-19T07:10:54.184Z,11.29
2023-05-19T07:11:58.506Z,11.41
2023-05-19T07:13:00.341Z,11.45
2023-05-19T07:14:05.923Z,11.46
2023-05-19T07:15:07.873Z,11.52
2023-05-19T07:16:10.276Z,11.49
2023-05-19T07:17:12.723Z,11.28
2023-05-19T07:18:19.820Z,11.47
2023-05-19T07:19:24.126Z,11.56
2023-05-19T07:20:26.664Z,11.63
2023-05-19T07:21:29.602Z,11.73
2023-05-19T07:22:31.523Z,11.80
2023-05-19T07:23:35.657Z,11.87
2023-05-19T07:24:37.264Z,11.95
2023-05-19T07:25:38.974Z,11.90
2023-05-19T07:26:43.309Z,12.09
2023-05-19T07:27:45.713Z,12.20
2023-05-19T07:28:47.404Z,12.23
2023-05-19T07:29:48.971Z,12.22
2023-05-19T07:30:53.222Z,12.24
2023-05-19T07:31:57.864Z,12.31
2023-05-19T07:32:59.840Z,12.36
2023-05-19T07:34:03.038Z,12.12
2023-05-19T07:35:08.801Z,12.27
2023-05-19T07:36:10.497Z,12.33
2023-05-19T07:37:14.152Z,12.23
2023-05-19T07:38:15.896Z,12.28
2023-05-19T07:39:17.705Z,12.12
2023-05-19T07:40:19.711Z,12.25
2023-05-19T07:41:21.832Z,12.34
2023-05-19T07:42:23.761Z,12.30
2023-05-19T07:43:25.454Z,12.30
2023-05-19T07:44:27.666Z,12.17
2023-05-19T07:45:29.447Z,12.32
2023-05-19T07:46:34.309Z,12.26
2023-05-19T07:47:36.177Z,12.34
2023-05-19T07:48:40.159Z,12.25
2023-05-19T07:49:41.819Z,12.32
2023-05-19T07:50:43.484Z,12.23
2023-05-19T07:51:45.122Z,12.38
2023-05-19T07:52:46.638Z,12.18
2023-05-19T07:53:51.425Z,12.32
2023-05-19T07:54:53.267Z,12.38
2023-05-19T07:55:55.864Z,12.40
2023-05-19T07:56:58.808Z,12.36
2023-05-19T07:58:00.564Z,12.21
2023-05-19T07:59:03.824Z,12.35
2023-05-19T08:00:10.097Z,12.43
2023-05-19T08:01:13.434Z,12.45
2023-05-19T08:02:14.974Z,12.38
2023-05-19T08:03:20.807Z,12.49
2023-05-19T08:04:24.889Z,12.53
2023-05-19T08:05:30.047Z,12.56
2023-05-19T08:06:35.204Z,12.61
2023-05-19T08:07:37.198Z,12.66
2023-05-19T08:08:38.798Z,12.67
2023-05-19T08:09:40.556Z,12.64
2023-05-19T08:10:42.255Z,12.50
2023-05-19T08:11:49.827Z,12.53
2023-05-19T08:12:53.944Z,12.59
2023-05-19T08:13:58.086Z,12.61
2023-05-19T08:15:01.362Z,12.58
2023-05-19T08:16:03.999Z,12.41
2023-05-19T08:17:06.148Z,12.44
2023-05-19T08:18:07.874Z,12.49
2023-05-19T08:19:09.718Z,12.56
2023-05-19T08:20:16.196Z,12.52
2023-05-19T08:21:17.903Z,12.60
2023-05-19T08:22:19.598Z,12.49
2023-05-19T08:23:22.012Z,12.56
2023-05-19T08:24:23.679Z,12.65
2023-05-19T08:25:25.301Z,12.51
2023-05-19T08:26:29.536Z,12.56
2023-05-19T08:27:33.777Z,12.58
2023-05-19T08:28:35.691Z,12.55
2023-05-19T08:29:38.240Z,12.43
2023-05-19T08:30:39.875Z,12.37
2023-05-19T08:31:41.575Z,12.57
2023-05-19T08:32:43.247Z,12.52
2023-05-19T08:33:45.628Z,12.59
2023-05-19T08:34:47.340Z,12.61
2023-05-19T08:35:49.029Z,12.68
2023-05-19T08:36:50.616Z,12.60
2023-05-19T08:37:54.406Z,12.75
2023-05-19T08:38:56.252Z,12.70
2023-05-19T08:39:57.943Z,12.67
2023-05-19T08:40:59.628Z,12.52
2023-05-19T08:42:02.389Z,12.71
2023-05-19T08:43:04.340Z,12.78
2023-05-19T08:44:06.010Z,12.82
2023-05-19T08:45:07.765Z,12.74
2023-05-19T08:46:13.832Z,12.84
2023-05-19T08:47:16.250Z,12.90
2023-05-19T08:48:21.666Z,12.97
2023-05-19T08:49:28.074Z,12.94
2023-05-19T08:50:33.499Z,13.01
2023-05-19T08:52:06.336Z,13.05
2023-05-19T08:53:33.984Z,13.10
2023-05-19T08:54:52.559Z,13.05
2023-05-19T08:56:01.455Z,13.13
2023-05-19T08:57:06.215Z,13.18
2023-05-19T08:58:12.497Z,13.14
2023-05-19T08:59:17.413Z,13.26
2023-05-19T09:00:22.726Z,13.33
2023-05-19T09:01:28.883Z,13.45
2023-05-19T09:02:31.154Z,13.52
2023-05-19T09:03:38.079Z,13.60
2023-05-19T09:04:41.581Z,13.66
2023-05-19T09:05:43.607Z,13.73
2023-05-19T09:06:45.466Z,13.78
2023-05-19T09:07:48.336Z,13.82
2023-05-19T09:08:49.995Z,13.90
2023-05-19T09:09:54.018Z,13.85
2023-05-19T09:10:55.566Z,13.73
2023-05-19T09:11:58.051Z,13.82
2023-05-19T09:12:59.736Z,13.85
2023-05-19T09:14:01.387Z,13.85
2023-05-19T09:15:04.767Z,14.07
2023-05-19T09:16:06.953Z,14.16
2023-05-19T09:17:08.789Z,14.27
2023-05-19T09:18:17.743Z,14.41
2023-05-19T09:19:20.839Z,14.45
2023-05-19T09:20:22.737Z,14.55
2023-05-19T09:21:45.722Z,14.59
2023-05-19T09:22:47.570Z,14.65
2023-05-19T09:23:49.647Z,14.73
2023-05-19T09:24:52.797Z,14.72
2023-05-19T09:25:54.702Z,14.79
2023-05-19T09:27:02.259Z,14.88
2023-05-19T09:28:04.011Z,14.92
2023-05-19T09:29:14.492Z,14.93
2023-05-19T09:30:19.708Z,14.91
2023-05-19T09:31:22.557Z,14.92
2023-05-19T09:32:27.785Z,15.09
2023-05-19T09:33:30.126Z,15.24
2023-05-19T09:34:32.040Z,15.37
2023-05-19T09:35:34.808Z,15.43
2023-05-19T09:36:42.221Z,15.51
2023-05-19T09:37:44.018Z,15.45
2023-05-19T09:38:45.535Z,15.35
2023-05-19T09:39:51.984Z,15.43
2023-05-19T09:40:57.247Z,15.51
2023-05-19T09:42:04.638Z,15.46
2023-05-19T09:43:08.608Z,15.59
2023-05-19T09:44:13.926Z,15.54
2023-05-19T09:45:16.426Z,15.60
2023-05-19T09:46:18.109Z,15.62
2023-05-19T09:47:22.174Z,15.60
2023-05-19T09:48:26.598Z,15.65
2023-05-19T09:49:30.121Z,15.76
2023-05-19T09:50:32.580Z,15.55
2023-05-19T09:51:37.521Z,15.52
2023-05-19T09:52:40.745Z,15.59
2023-05-19T09:53:42.507Z,15.48
2023-05-19T09:54:44.990Z,15.38
2023-05-19T09:55:46.628Z,15.35
2023-05-19T09:56:58.600Z,15.44
2023-05-19T09:58:03.887Z,15.38
2023-05-19T09:59:07.230Z,15.27
2023-05-19T10:00:13.425Z,15.23
2023-05-19T10:01:15.463Z,15.14
2023-05-19T10:02:20.744Z,15.06
2023-05-19T10:03:24.049Z,15.14
2023-05-19T10:04:27.463Z,15.09
2023-05-19T10:05:29.845Z,15.07
2023-05-19T10:06:31.981Z,15.04
2023-05-19T10:07:34.785Z,15.07
2023-05-19T10:08:39.804Z,14.97
2023-05-19T10:09:45.468Z,14.97
2023-05-19T10:10:47.784Z,14.98
2023-05-19T10:11:52.145Z,14.99
2023-05-19T10:12:54.505Z,14.81
2023-05-19T10:13:56.604Z,14.84
2023-05-19T10:14:59.382Z,14.82
2023-05-19T10:16:01.851Z,14.86
2023-05-19T10:17:04.048Z,14.83
2023-05-19T10:18:09.057Z,14.81
2023-05-19T10:19:12.931Z,14.74
2023-05-19T10:20:17.898Z,14.71
2023-05-19T10:21:19.608Z,14.83
2023-05-19T10:22:21.784Z,14.59
2023-05-19T10:23:24.049Z,14.82
2023-05-19T10:24:26.699Z,14.88
2023-05-19T10:25:30.767Z,14.94
2023-05-19T10:26:33.712Z,14.97
2023-05-19T10:27:46.612Z,14.99
2023-05-19T10:28:49.042Z,15.11
2023-05-19T10:29:53.135Z,15.11
2023-05-19T10:30:59.381Z,15.15
2023-05-19T10:32:08.304Z,15.21
2023-05-19T10:33:13.812Z,15.23
2023-05-19T10:34:51.509Z,15.10
2023-05-19T10:36:31.431Z,15.00
2023-05-19T10:38:00.456Z,15.00
2023-05-19T10:39:08.338Z,15.20
2023-05-19T10:40:21.106Z,15.21
2023-05-19T10:41:33.445Z,15.25
2023-05-19T10:42:46.689Z,15.30
2023-05-19T10:43:56.731Z,15.31
2023-05-19T10:45:21.107Z,15.03
2023-05-19T10:46:30.218Z,15.25
2023-05-19T10:47:34.079Z,15.32
2023-05-19T10:48:38.518Z,15.48
2023-05-19T10:49:40.643Z,15.52
2023-05-19T10:50:49.022Z,15.54
2023-05-19T10:51:55.006Z,15.46
2023-05-19T10:53:00.203Z,15.44
2023-05-19T10:54:03.089Z,15.51
2023-05-19T10:55:08.690Z,15.50
2023-05-19T10:56:10.486Z,15.33
2023-05-19T10:57:18.161Z,15.33
2023-05-19T10:58:39.724Z,15.40
2023-05-19T10:59:42.067Z,15.44
2023-05-19T11:00:45.825Z,15.46
2023-05-19T11:01:48.299Z,15.38
2023-05-19T11:02:56.051Z,15.24
2023-05-19T11:03:58.111Z,15.23
2023-05-19T11:05:18.400Z,15.14
2023-05-19T11:06:26.244Z,15.10
2023-05-19T11:07:29.801Z,15.20
2023-05-19T11:08:33.574Z,15.19
2023-05-19T11:09:41.037Z,15.24
2023-05-19T11:10:46.287Z,15.25
2023-05-19T11:11:54.932Z,15.36
2023-05-19T11:13:01.982Z,15.46
2023-05-19T11:14:04.193Z,15.48
2023-05-19T11:15:11.890Z,15.53
2023-05-19T11:16:14.124Z,15.56
2023-05-19T11:17:16.345Z,15.54
2023-05-19T11:18:19.635Z,15.52
2023-05-19T11:19:29.175Z,15.48
2023-05-19T11:20:36.274Z,15.46
2023-05-19T11:21:54.982Z,15.47
2023-05-19T11:23:14.441Z,15.53
2023-05-19T11:24:40.008Z,15.44
2023-05-19T11:25:47.097Z,15.51
2023-05-19T11:26:48.830Z,15.58
2023-05-19T11:27:53.482Z,15.56
2023-05-19T11:28:55.183Z,15.82
2023-05-19T11:30:00.542Z,15.70
2023-05-19T11:32:11.256Z,15.99
2023-05-19T11:33:13.853Z,16.07
2023-05-19T11:34:16.188Z,16.20
2023-05-19T11:35:19.174Z,16.37
2023-05-19T11:36:24.177Z,16.41
2023-05-19T11:37:26.351Z,16.40
2023-05-19T11:38:30.115Z,16.31
2023-05-19T11:39:35.149Z,16.49
2023-05-19T11:40:37.141Z,16.48
2023-05-19T11:41:40.737Z,16.56
2023-05-19T11:42:47.335Z,16.59
2023-05-19T11:43:48.992Z,16.54
2023-05-19T11:44:52.939Z,16.64
2023-05-19T11:45:55.193Z,16.72
2023-05-19T11:46:57.734Z,16.65
2023-05-19T11:48:02.428Z,16.56
2023-05-19T11:49:05.786Z,16.60
2023-05-19T11:50:10.187Z,16.58
2023-05-19T11:51:11.991Z,16.50
2023-05-19T11:52:13.963Z,16.36
2023-05-19T11:53:22.086Z,16.40
2023-05-19T11:54:30.145Z,16.19
2023-05-19T11:55:32.353Z,16.28
2023-05-19T11:56:43.184Z,16.30
2023-05-19T11:58:04.436Z,16.26
2023-05-19T11:59:06.576Z,16.34
2023-05-19T12:00:09.197Z,16.23
2023-05-19T12:01:11.206Z,16.31
2023-05-19T12:02:20.091Z,15.96
2023-05-19T12:03:26.532Z,15.81
2023-05-19T12:04:28.490Z,15.73
2023-05-19T12:05:34.514Z,15.98
2023-05-19T12:06:38.240Z,16.15
2023-05-19T12:07:40.158Z,16.17
2023-05-19T12:08:41.729Z,16.03
2023-05-19T12:09:45.821Z,16.15
2023-05-19T12:10:50.921Z,16.10
2023-05-19T12:11:52.998Z,16.09
2023-05-19T12:12:55.553Z,16.15
2023-05-19T12:14:01.578Z,16.12
2023-05-19T12:15:03.986Z,16.03
2023-05-19T12:16:06.229Z,15.96
2023-05-19T12:17:16.565Z,16.09
2023-05-19T12:18:19.276Z,16.10
2023-05-19T12:19:24.181Z,16.05
2023-05-19T12:20:29.293Z,16.03
2023-05-19T12:21:34.031Z,15.98
2023-05-19T12:22:36.781Z,15.91
2023-05-19T12:23:39.057Z,15.84
2023-05-19T12:24:42.749Z,15.78
2023-05-19T12:25:47.170Z,15.76
2023-05-19T12:26:50.307Z,15.71
2023-05-19T12:27:58.026Z,15.71
2023-05-19T12:29:02.259Z,15.72
2023-05-19T12:30:05.027Z,15.61
2023-05-19T12:31:06.800Z,15.75
2023-05-19T12:32:09.103Z,15.60
2023-05-19T12:33:11.880Z,15.60
2023-05-19T12:34:15.933Z,15.57
2023-05-19T12:35:20.671Z,15.50
2023-05-19T12:36:25.378Z,15.57
2023-05-19T12:37:27.809Z,15.62
2023-05-19T12:38:29.438Z,15.49
2023-05-19T12:39:31.445Z,15.53
2023-05-19T12:40:37.539Z,15.67
2023-05-19T12:41:45.037Z,15.61
2023-05-19T12:42:48.089Z,15.65
2023-05-19T12:43:50.758Z,15.46
2023-05-19T12:44:54.731Z,15.40
2023-05-19T12:45:56.554Z,15.32
2023-05-19T12:46:59.548Z,15.46
2023-05-19T12:48:04.463Z,15.33
2023-05-19T12:49:06.272Z,15.37
2023-05-19T12:50:09.198Z,15.30
2023-05-19T12:51:20.200Z,15.48
2023-05-19T12:52:23.494Z,15.48
2023-05-19T12:53:27.256Z,15.47
2023-05-19T12:54:35.508Z,15.44
2023-05-19T12:55:43.780Z,15.45
2023-05-19T12:56:53.436Z,15.28
2023-05-19T12:57:57.843Z,15.40
2023-05-19T12:59:00.873Z,15.23
2023-05-19T13:00:08.096Z,15.40
2023-05-19T13:01:17.818Z,15.43
2023-05-19T13:02:21.002Z,15.50
2023-05-19T13:03:22.773Z,15.31
2023-05-19T13:04:30.556Z,15.41
2023-05-19T13:05:34.437Z,15.32
2023-05-19T13:06:36.096Z,15.24
2023-05-19T13:07:37.759Z,15.34
2023-05-19T13:08:42.281Z,15.25
2023-05-19T13:09:44.779Z,15.40
2023-05-19T13:10:47.714Z,15.18
2023-05-19T13:11:53.927Z,15.32
2023-05-19T13:12:56.339Z,15.40
2023-05-19T13:13:58.113Z,15.30
2023-05-19T13:15:04.737Z,15.31
2023-05-19T13:16:09.075Z,15.39
2023-05-19T13:17:10.865Z,15.38
2023-05-19T13:18:14.104Z,15.38
2023-05-19T13:19:25.401Z,15.25
2023-05-19T13:20:28.635Z,15.36
2023-05-19T13:21:30.521Z,15.42
2023-05-19T13:22:34.168Z,15.51
2023-05-19T13:23:35.909Z,15.61
2023-05-19T13:24:37.618Z,15.67
2023-05-19T13:25:39.515Z,15.63
2023-05-19T13:26:41.660Z,15.76
2023-05-19T13:27:47.208Z,15.90
2023-05-19T13:28:49.067Z,15.87
2023-05-19T13:29:53.301Z,15.94
2023-05-19T13:30:55.364Z,15.90
2023-05-19T13:31:58.106Z,15.90
2023-05-19T13:33:01.680Z,15.90
2023-05-19T13:34:03.694Z,16.00
2023-05-19T13:35:05.907Z,15.85
2023-05-19T13:36:07.578Z,15.88
2023-05-19T13:37:10.091Z,15.95
2023-05-19T13:38:11.830Z,15.81
2023-05-19T13:39:15.942Z,16.04
2023-05-19T13:40:17.660Z,15.93
2023-05-19T13:41:22.978Z,15.90
2023-05-19T13:42:24.771Z,16.06
2023-05-19T13:43:26.466Z,16.18
2023-05-19T13:44:28.111Z,16.17
2023-05-19T13:45:30.061Z,16.13
2023-05-19T13:46:44.817Z,16.24
2023-05-19T13:47:48.118Z,16.21
2023-05-19T13:48:52.048Z,16.18
2023-05-19T13:49:54.410Z,16.37
2023-05-19T13:50:56.060Z,16.44
2023-05-19T13:51:58.310Z,16.42
2023-05-19T13:53:03.577Z,16.40
2023-05-19T13:54:05.244Z,16.31
2023-05-19T13:55:07.535Z,16.22
2023-05-19T13:56:09.217Z,16.24
2023-05-19T13:57:11.618Z,16.12
2023-05-19T13:58:14.780Z,16.24
2023-05-19T13:59:21.396Z,16.24
2023-05-19T14:00:24.980Z,16.20
2023-05-19T14:01:26.636Z,16.16
2023-05-19T14:02:28.376Z,15.97
2023-05-19T14:03:30.508Z,16.07